createdAt,value
2023-03-27T00:00:38.492Z,20.6238
2023-03-27T00:01:40.105Z,20.6240
2023-03-27T00:02:41.958Z,20.6197
2023-03-27T00:03:43.525Z,20.6293
2023-03-27T00:04:45.062Z,20.6388
2023-03-27T00:05:46.733Z,20.6392
2023-03-27T00:06:48.357Z,20.6492
2023-03-27T00:07:50.016Z,20.6484
2023-03-27T00:08:51.657Z,20.6431
2023-03-27T00:09:53.327Z,20.6427
2023-03-27T00:10:55.178Z,20.6665
2023-03-27T00:11:56.617Z,20.6823
2023-03-27T00:12:58.255Z,20.6792
2023-03-27T00:13:59.926Z,20.6755
2023-03-27T00:15:01.537Z,20.6770
2023-03-27T00:16:03.254Z,20.6646
2023-03-27T00:17:04.883Z,20.6657
2023-03-27T00:18:06.552Z,20.6581
2023-03-27T00:19:08.150Z,20.6597
2023-03-27T00:20:09.833Z,20.6696
2023-03-27T00:21:11.513Z,20.6644
2023-03-27T00:22:13.129Z,20.6724
2023-03-27T00:23:14.767Z,20.6829
2023-03-27T00:24:16.435Z,20.6749
2023-03-27T00:25:18.063Z,20.6749
2023-03-27T00:26:19.758Z,20.6724
2023-03-27T00:27:21.371Z,20.6739
2023-03-27T00:28:23.030Z,20.6743
2023-03-27T00:29:24.672Z,20.6817
2023-03-27T00:30:26.325Z,20.6940
2023-03-27T00:31:28.079Z,20.7043
2023-03-27T00:32:29.653Z,20.7107
2023-03-27T00:33:31.300Z,20.7018
2023-03-27T00:34:32.924Z,20.6957
2023-03-27T00:35:34.672Z,20.6835
2023-03-27T00:36:36.248Z,20.6798
2023-03-27T00:37:37.897Z,20.6735
2023-03-27T00:38:39.740Z,20.6885
2023-03-27T00:39:41.222Z,20.6913
2023-03-27T00:40:42.855Z,20.6831
2023-03-27T00:41:44.531Z,20.6862
2023-03-27T00:42:46.152Z,20.6864
2023-03-27T00:43:47.816Z,20.6948
2023-03-27T00:44:49.442Z,20.6766
2023-03-27T00:45:51.126Z,20.6757
2023-03-27T00:46:52.803Z,20.6946
2023-03-27T00:47:54.428Z,20.6911
2023-03-27T00:48:56.047Z,20.6784
2023-03-27T00:49:57.728Z,20.6739
2023-03-27T00:50:59.356Z,20.6784
2023-03-27T00:52:01.058Z,20.6743
2023-03-27T00:53:02.657Z,20.6737
2023-03-27T00:54:04.329Z,20.6755
2023-03-27T00:55:05.985Z,20.6640
2023-03-27T00:56:07.650Z,20.6798
2023-03-27T00:57:09.333Z,20.6811
2023-03-27T00:58:10.946Z,20.6879
2023-03-27T00:59:12.606Z,20.6807
2023-03-27T01:00:14.282Z,20.6926
2023-03-27T01:01:15.904Z,20.6992
2023-03-27T01:02:17.596Z,20.7113
2023-03-27T01:03:19.275Z,20.7078
2023-03-27T01:04:20.849Z,20.7006
2023-03-27T01:05:22.487Z,20.7057
2023-03-27T01:06:24.149Z,20.7065
2023-03-27T01:07:25.788Z,20.6959
2023-03-27T01:08:27.451Z,20.6903
2023-03-27T01:09:29.084Z,20.6952
2023-03-27T01:10:30.753Z,20.7063
2023-03-27T01:11:32.386Z,20.7039
2023-03-27T01:12:34.069Z,20.6985
2023-03-27T01:13:35.693Z,20.6881
2023-03-27T01:14:37.362Z,20.6866
2023-03-27T01:15:39.013Z,20.7063
2023-03-27T01:16:40.663Z,20.7074
2023-03-27T01:17:42.358Z,20.6901
2023-03-27T01:18:43.946Z,20.6944
2023-03-27T01:19:45.594Z,20.6922
2023-03-27T01:20:47.345Z,20.6946
2023-03-27T01:21:48.904Z,20.7049
2023-03-27T01:22:50.599Z,20.7043
2023-03-27T01:23:59.354Z,20.6897
2023-03-27T01:24:53.889Z,20.6903
2023-03-27T01:25:55.500Z,20.6881
2023-03-27T01:26:57.168Z,20.6881
2023-03-27T01:27:58.832Z,20.7012
2023-03-27T01:29:00.477Z,20.6989
2023-03-27T01:30:02.109Z,20.7010
2023-03-27T01:31:03.798Z,20.7031
2023-03-27T01:32:05.414Z,20.6961
2023-03-27T01:33:07.174Z,20.6883
2023-03-27T01:34:08.718Z,20.6815
2023-03-27T01:35:10.398Z,20.6788
2023-03-27T01:36:12.042Z,20.6796
2023-03-27T01:37:13.706Z,20.6831
2023-03-27T01:38:15.355Z,20.6938
2023-03-27T01:39:17.013Z,20.6907
2023-03-27T01:40:18.639Z,20.6872
2023-03-27T01:41:20.316Z,20.6897
2023-03-27T01:42:21.948Z,20.6934
2023-03-27T01:43:23.647Z,20.6866
2023-03-27T01:44:25.247Z,20.7065
2023-03-27T01:45:26.919Z,20.6977
2023-03-27T01:46:28.587Z,20.6794
2023-03-27T01:47:30.237Z,20.6823
2023-03-27T01:48:31.929Z,20.6819
2023-03-27T01:49:33.531Z,20.6648
2023-03-27T01:50:35.152Z,20.6669
2023-03-27T01:51:36.839Z,20.6603
2023-03-27T01:52:38.488Z,20.6677
2023-03-27T01:53:40.294Z,20.6805
2023-03-27T01:54:41.782Z,20.6622
2023-03-27T01:55:43.441Z,20.6595
2023-03-27T01:56:45.091Z,20.6710
2023-03-27T01:57:48.961Z,20.6659
2023-03-27T01:58:48.405Z,20.6618
2023-03-27T01:59:50.061Z,20.6632
2023-03-27T02:01:04.110Z,20.6786
2023-03-27T02:01:53.357Z,20.6634
2023-03-27T02:02:55.009Z,20.6700
2023-03-27T02:03:56.701Z,20.6858
2023-03-27T02:04:58.322Z,20.6860
2023-03-27T02:05:59.962Z,20.6800
2023-03-27T02:07:01.597Z,20.6651
2023-03-27T02:08:03.282Z,20.6737
2023-03-27T02:09:04.911Z,20.6655
2023-03-27T02:10:06.581Z,20.6562
2023-03-27T02:11:08.284Z,20.6501
2023-03-27T02:12:09.946Z,20.6554
2023-03-27T02:13:11.584Z,20.6476
2023-03-27T02:14:13.278Z,20.6484
2023-03-27T02:15:23.659Z,20.6589
2023-03-27T02:16:16.641Z,20.6607
2023-03-27T02:17:18.201Z,20.6595
2023-03-27T02:18:19.881Z,20.6474
2023-03-27T02:19:21.537Z,20.6503
2023-03-27T02:20:23.186Z,20.6492
2023-03-27T02:21:24.846Z,20.6499
2023-03-27T02:22:38.137Z,20.6671
2023-03-27T02:23:28.132Z,20.6482
2023-03-27T02:24:29.867Z,20.6423
2023-03-27T02:25:31.457Z,20.6351
2023-03-27T02:26:33.125Z,20.6361
2023-03-27T02:27:34.743Z,20.6314
2023-03-27T02:28:36.415Z,20.6219
2023-03-27T02:29:38.080Z,20.6252
2023-03-27T02:30:39.735Z,20.6340
2023-03-27T02:31:41.430Z,20.6299
2023-03-27T02:32:43.163Z,20.6373
2023-03-27T02:33:44.681Z,20.6332
2023-03-27T02:34:46.338Z,20.6291
2023-03-27T02:35:48.022Z,20.6232
2023-03-27T02:36:49.646Z,20.6069
2023-03-27T02:37:51.314Z,20.6135
2023-03-27T02:38:52.950Z,20.6203
2023-03-27T02:39:54.638Z,20.6170
2023-03-27T02:40:56.396Z,20.6102
2023-03-27T02:41:57.911Z,20.6043
2023-03-27T02:42:59.577Z,20.6022
2023-03-27T02:44:01.233Z,20.6088
2023-03-27T02:45:02.891Z,20.6040
2023-03-27T02:46:04.625Z,20.6116
2023-03-27T02:47:06.181Z,20.6139
2023-03-27T02:48:07.900Z,20.6153
2023-03-27T02:49:09.484Z,20.6141
2023-03-27T02:50:11.227Z,20.6145
2023-03-27T02:51:12.803Z,20.6114
2023-03-27T02:52:14.464Z,20.5905
2023-03-27T02:53:16.104Z,20.5835
2023-03-27T02:54:17.766Z,20.5872
2023-03-27T02:55:19.426Z,20.5905
2023-03-27T02:56:21.097Z,20.5944
2023-03-27T02:57:24.967Z,20.5946
2023-03-27T02:58:24.391Z,20.5958
2023-03-27T02:59:26.016Z,20.5911
2023-03-27T03:00:27.712Z,20.5886
2023-03-27T03:01:29.365Z,20.5888
2023-03-27T03:02:31.065Z,20.5886
2023-03-27T03:03:32.646Z,20.5759
2023-03-27T03:04:34.307Z,20.5685
2023-03-27T03:05:35.961Z,20.5724
2023-03-27T03:06:37.608Z,20.5730
2023-03-27T03:07:39.248Z,20.5671
2023-03-27T03:08:40.919Z,20.5648
2023-03-27T03:09:42.555Z,20.5665
2023-03-27T03:10:44.241Z,20.5624
2023-03-27T03:11:45.849Z,20.5691
2023-03-27T03:12:47.515Z,20.5761
2023-03-27T03:13:49.147Z,20.5852
2023-03-27T03:14:50.831Z,20.5736
2023-03-27T03:15:52.507Z,20.5687
2023-03-27T03:16:54.177Z,20.5558
2023-03-27T03:17:55.780Z,20.5519
2023-03-27T03:18:57.451Z,20.5400
2023-03-27T03:19:59.069Z,20.5410
2023-03-27T03:21:00.782Z,20.5352
2023-03-27T03:22:02.386Z,20.5428
2023-03-27T03:23:04.056Z,20.5402
2023-03-27T03:24:05.696Z,20.5389
2023-03-27T03:25:07.370Z,20.5295
2023-03-27T03:26:09.022Z,20.5420
2023-03-27T03:27:10.693Z,20.5241
2023-03-27T03:28:12.303Z,20.5280
2023-03-27T03:29:13.972Z,20.5389
2023-03-27T03:30:16.985Z,20.5480
2023-03-27T03:31:17.362Z,20.5406
2023-03-27T03:32:18.916Z,20.5391
2023-03-27T03:33:20.582Z,20.5256
2023-03-27T03:34:22.203Z,20.5283
2023-03-27T03:35:23.898Z,20.5272
2023-03-27T03:36:25.526Z,20.5227
2023-03-27T03:37:27.178Z,20.5237
2023-03-27T03:38:28.815Z,20.5305
2023-03-27T03:39:30.490Z,20.5264
2023-03-27T03:40:32.112Z,20.5200
2023-03-27T03:41:33.804Z,20.5192
2023-03-27T03:42:35.422Z,20.5227
2023-03-27T03:43:37.086Z,20.5237
2023-03-27T03:44:38.741Z,20.5147
2023-03-27T03:45:40.395Z,20.5270
2023-03-27T03:46:42.041Z,20.5342
2023-03-27T03:47:43.725Z,20.5315
2023-03-27T03:48:45.317Z,20.5330
2023-03-27T03:49:46.993Z,20.5274
2023-03-27T03:50:48.623Z,20.5044
2023-03-27T03:52:03.775Z,20.4983
2023-03-27T03:52:51.921Z,20.4874
2023-03-27T03:53:53.586Z,20.4697
2023-03-27T03:54:55.239Z,20.4677
2023-03-27T03:55:56.883Z,20.4599
2023-03-27T03:56:58.557Z,20.4640
2023-03-27T03:58:00.192Z,20.4831
2023-03-27T03:59:01.846Z,20.4800
2023-03-27T04:00:03.504Z,20.4829
2023-03-27T04:01:05.126Z,20.4991
2023-03-27T04:02:06.837Z,20.4818
2023-03-27T04:03:08.640Z,20.4829
2023-03-27T04:04:10.104Z,20.4880
2023-03-27T04:05:11.745Z,20.4958
2023-03-27T04:06:13.419Z,20.4794
2023-03-27T04:07:15.060Z,20.4730
2023-03-27T04:08:16.715Z,20.4580
2023-03-27T04:09:18.341Z,20.4549
2023-03-27T04:10:20.048Z,20.4601
2023-03-27T04:11:21.660Z,20.4613
2023-03-27T04:12:23.353Z,20.4646
2023-03-27T04:13:24.987Z,20.4648
2023-03-27T04:14:26.622Z,20.4722
2023-03-27T04:15:28.266Z,20.4759
2023-03-27T04:16:29.994Z,20.4755
2023-03-27T04:17:31.622Z,20.4607
2023-03-27T04:18:33.367Z,20.4691
2023-03-27T04:19:34.888Z,20.4660
2023-03-27T04:20:36.537Z,20.4607
2023-03-27T04:21:38.158Z,20.4650
2023-03-27T04:22:39.847Z,20.4609
2023-03-27T04:23:41.463Z,20.4504
2023-03-27T04:24:43.140Z,20.4264
2023-03-27T04:25:44.810Z,20.4654
2023-03-27T04:26:46.441Z,20.4876
2023-03-27T04:27:48.088Z,20.4857
2023-03-27T04:28:49.730Z,20.4847
2023-03-27T04:29:51.369Z,20.5100
2023-03-27T04:30:53.038Z,20.5048
2023-03-27T04:31:54.681Z,20.5319
2023-03-27T04:32:56.389Z,20.5369
2023-03-27T04:33:57.977Z,20.5519
2023-03-27T04:34:59.651Z,20.5441
2023-03-27T04:36:06.360Z,20.5256
2023-03-27T04:37:02.958Z,20.3744
2023-03-27T04:38:04.616Z,20.1743
2023-03-27T04:39:06.260Z,20.1211
2023-03-27T04:40:07.892Z,20.2019
2023-03-27T04:41:09.545Z,20.2758
2023-03-27T04:42:11.178Z,20.2752
2023-03-27T04:43:12.887Z,20.2842
2023-03-27T04:44:14.493Z,20.2770
2023-03-27T04:45:16.190Z,20.3278
2023-03-27T04:46:17.825Z,20.3984
2023-03-27T04:47:19.476Z,20.3816
2023-03-27T04:48:21.140Z,20.3876
2023-03-27T04:49:22.780Z,20.4231
2023-03-27T04:50:24.403Z,20.4459
2023-03-27T04:51:26.089Z,20.4937
2023-03-27T04:52:27.725Z,20.5044
2023-03-27T04:53:29.556Z,20.4514
2023-03-27T04:54:31.055Z,20.4077
2023-03-27T04:55:32.680Z,20.3986
2023-03-27T04:56:34.363Z,20.4282
2023-03-27T04:57:35.987Z,20.4307
2023-03-27T04:58:37.945Z,20.3876
2023-03-27T04:59:39.301Z,20.3516
2023-03-27T05:00:40.987Z,20.3263
2023-03-27T05:01:42.606Z,20.2664
2023-03-27T05:02:44.270Z,20.1400
2023-03-27T05:03:45.976Z,20.1667
2023-03-27T05:04:47.551Z,20.2323
2023-03-27T05:05:49.190Z,20.2296
2023-03-27T05:06:50.872Z,20.2489
2023-03-27T05:07:52.580Z,20.2748
2023-03-27T05:08:54.177Z,20.3152
2023-03-27T05:09:55.777Z,20.3327
2023-03-27T05:10:57.712Z,20.3346
2023-03-27T05:11:59.098Z,20.3426
2023-03-27T05:13:00.769Z,20.3590
2023-03-27T05:14:02.426Z,20.3565
2023-03-27T05:15:04.089Z,20.3510
2023-03-27T05:16:05.720Z,20.4163
2023-03-27T05:17:07.374Z,20.4159
2023-03-27T05:18:09.322Z,20.3522
2023-03-27T05:19:10.767Z,20.3884
2023-03-27T05:20:12.319Z,20.4021
2023-03-27T05:21:13.974Z,20.4056
2023-03-27T05:22:15.626Z,20.4151
2023-03-27T05:23:17.288Z,20.4424
2023-03-27T05:24:18.931Z,20.4198
2023-03-27T05:25:20.586Z,20.4352
2023-03-27T05:26:22.215Z,20.4375
2023-03-27T05:27:23.923Z,20.3487
2023-03-27T05:28:25.525Z,20.3652
2023-03-27T05:29:27.232Z,20.3674
2023-03-27T05:30:28.927Z,20.4214
2023-03-27T05:31:30.573Z,20.4631
2023-03-27T05:32:32.170Z,20.4198
2023-03-27T05:33:33.785Z,20.3574
2023-03-27T05:34:35.496Z,20.3931
2023-03-27T05:35:37.125Z,20.4229
2023-03-27T05:36:38.773Z,20.4381
2023-03-27T05:37:40.405Z,20.4520
2023-03-27T05:38:42.064Z,20.4734
2023-03-27T05:39:43.732Z,20.4833
2023-03-27T05:40:45.374Z,20.4806
2023-03-27T05:41:47.005Z,20.4820
2023-03-27T05:42:48.674Z,20.4763
2023-03-27T05:43:51.241Z,20.4646
2023-03-27T05:44:51.996Z,20.4596
2023-03-27T05:45:53.626Z,20.4537
2023-03-27T05:46:55.291Z,20.4514
2023-03-27T05:47:56.991Z,20.4646
2023-03-27T05:48:58.592Z,20.4625
2023-03-27T05:50:00.249Z,20.4656
2023-03-27T05:51:01.903Z,20.4572
2023-03-27T05:52:03.510Z,20.4545
2023-03-27T05:53:05.200Z,20.4416
2023-03-27T05:54:06.809Z,20.4679
2023-03-27T05:55:08.523Z,20.4687
2023-03-27T05:56:10.116Z,20.4685
2023-03-27T05:57:11.914Z,20.4738
2023-03-27T05:58:13.462Z,20.4837
2023-03-27T05:59:15.077Z,20.4590
2023-03-27T06:00:16.762Z,20.4689
2023-03-27T06:01:18.388Z,20.4596
2023-03-27T06:02:21.517Z,20.3925
2023-03-27T06:03:21.876Z,20.4599
2023-03-27T06:04:23.358Z,20.4724
2023-03-27T06:05:25.023Z,20.4440
2023-03-27T06:06:26.637Z,20.4574
2023-03-27T06:07:28.305Z,20.4806
2023-03-27T06:08:29.933Z,20.5192
2023-03-27T06:09:31.583Z,20.4962
2023-03-27T06:10:33.250Z,20.5067
2023-03-27T06:11:34.889Z,20.4859
2023-03-27T06:12:36.526Z,20.4874
2023-03-27T06:13:38.260Z,20.4979
2023-03-27T06:14:39.906Z,20.4888
2023-03-27T06:15:41.635Z,20.4933
2023-03-27T06:16:43.201Z,20.4771
2023-03-27T06:17:44.894Z,20.4853
2023-03-27T06:18:46.498Z,20.4931
2023-03-27T06:19:48.184Z,20.4931
2023-03-27T06:20:49.815Z,20.5042
2023-03-27T06:21:51.460Z,20.4884
2023-03-27T06:22:53.104Z,20.4837
2023-03-27T06:23:54.763Z,20.4890
2023-03-27T06:24:56.389Z,20.4999
2023-03-27T06:25:58.378Z,20.4876
2023-03-27T06:26:59.691Z,20.4882
2023-03-27T06:28:01.364Z,20.4785
2023-03-27T06:29:08.142Z,20.4740
2023-03-27T06:30:04.676Z,20.4744
2023-03-27T06:31:06.355Z,20.4537
2023-03-27T06:32:07.981Z,20.4272
2023-03-27T06:33:09.621Z,20.4368
2023-03-27T06:34:11.284Z,20.4358
2023-03-27T06:35:12.896Z,20.3984
2023-03-27T06:36:14.625Z,20.3886
2023-03-27T06:37:16.181Z,20.4085
2023-03-27T06:38:17.862Z,20.4097
2023-03-27T06:39:19.479Z,20.3876
2023-03-27T06:40:21.139Z,20.3785
2023-03-27T06:41:22.802Z,20.3954
2023-03-27T06:42:24.445Z,20.3993
2023-03-27T06:43:26.075Z,20.3912
2023-03-27T06:44:27.738Z,20.3756
2023-03-27T06:45:29.393Z,20.3742
2023-03-27T06:46:42.688Z,20.3557
2023-03-27T06:47:36.382Z,20.3448
2023-03-27T06:48:34.366Z,20.3479
2023-03-27T06:49:35.975Z,20.3422
2023-03-27T06:50:37.629Z,20.3434
2023-03-27T06:51:39.281Z,20.3325
2023-03-27T06:52:40.928Z,20.3376
2023-03-27T06:53:42.558Z,20.3239
2023-03-27T06:54:44.216Z,20.3315
2023-03-27T06:55:45.868Z,20.3500
2023-03-27T06:56:47.610Z,20.3376
2023-03-27T06:57:49.166Z,20.3535
2023-03-27T06:58:50.836Z,20.3428
2023-03-27T06:59:52.488Z,20.3547
2023-03-27T07:00:54.129Z,20.3711
2023-03-27T07:01:55.830Z,20.3194
2023-03-27T07:02:57.420Z,20.3282
2023-03-27T07:03:59.065Z,20.3284
2023-03-27T07:05:04.649Z,20.3411
2023-03-27T07:06:02.556Z,20.3204
2023-03-27T07:07:04.049Z,20.3290
2023-03-27T07:08:18.997Z,20.2943
2023-03-27T07:09:07.318Z,20.2686
2023-03-27T07:10:08.962Z,20.2489
2023-03-27T07:11:12.266Z,20.2370
2023-03-27T07:12:12.278Z,20.2577
2023-03-27T07:13:13.919Z,20.2473
2023-03-27T07:14:15.589Z,20.2269
2023-03-27T07:15:17.295Z,20.2431
2023-03-27T07:16:18.892Z,20.2555
2023-03-27T07:17:20.532Z,20.2744
2023-03-27T07:18:22.216Z,20.2910
2023-03-27T07:19:23.822Z,20.2935
2023-03-27T07:20:25.473Z,20.2869
2023-03-27T07:21:27.137Z,20.2598
2023-03-27T07:22:28.799Z,20.2659
2023-03-27T07:23:30.435Z,20.2682
2023-03-27T07:24:32.060Z,20.2466
2023-03-27T07:25:33.744Z,20.2623
2023-03-27T07:26:35.354Z,20.2764
2023-03-27T07:27:37.063Z,20.2966
2023-03-27T07:28:38.729Z,20.2742
2023-03-27T07:29:40.337Z,20.2567
2023-03-27T07:30:41.983Z,20.2431
2023-03-27T07:31:57.525Z,20.2370
2023-03-27T07:32:45.408Z,20.2331
2023-03-27T07:33:47.068Z,20.2058
2023-03-27T07:34:48.579Z,20.1978
2023-03-27T07:35:50.256Z,20.2271
2023-03-27T07:36:51.894Z,20.2407
2023-03-27T07:37:53.579Z,20.2579
2023-03-27T07:38:55.184Z,20.2236
2023-03-27T07:39:56.847Z,20.1961
2023-03-27T07:40:58.504Z,20.1715
2023-03-27T07:42:00.164Z,20.1805
2023-03-27T07:43:01.834Z,20.1912
2023-03-27T07:44:03.464Z,20.2152
2023-03-27T07:45:05.090Z,20.2401
2023-03-27T07:46:06.803Z,20.2261
2023-03-27T07:47:08.397Z,20.1877
2023-03-27T07:48:10.087Z,20.1446
2023-03-27T07:49:11.685Z,20.1119
2023-03-27T07:50:13.380Z,20.0932
2023-03-27T07:51:14.982Z,20.1105
2023-03-27T07:52:16.738Z,20.1433
2023-03-27T07:53:32.806Z,20.1074
2023-03-27T07:54:19.945Z,20.1051
2023-03-27T07:55:21.582Z,20.0951
2023-03-27T07:56:23.276Z,20.1129
2023-03-27T07:57:25.041Z,20.1150
2023-03-27T07:58:26.857Z,20.1544
2023-03-27T07:59:28.197Z,20.1156
2023-03-27T08:00:29.980Z,20.1152
2023-03-27T08:01:31.480Z,20.1205
2023-03-27T08:02:33.188Z,20.0963
2023-03-27T08:03:34.922Z,20.0762
2023-03-27T08:04:36.584Z,20.0887
2023-03-27T08:05:38.080Z,20.0696
2023-03-27T08:06:39.751Z,20.0716
2023-03-27T08:07:41.389Z,20.0981
2023-03-27T08:08:43.092Z,20.0801
2023-03-27T08:09:44.697Z,20.0987
2023-03-27T08:10:46.361Z,20.1063
2023-03-27T08:11:48.010Z,20.0924
2023-03-27T08:12:49.668Z,20.0780
2023-03-27T08:13:51.330Z,20.0987
2023-03-27T08:14:52.968Z,20.0842
2023-03-27T08:15:54.750Z,20.0733
2023-03-27T08:17:08.648Z,20.0887
2023-03-27T08:17:57.937Z,20.1096
2023-03-27T08:18:59.640Z,20.0973
2023-03-27T08:20:01.226Z,20.0971
2023-03-27T08:21:02.957Z,20.0831
2023-03-27T08:22:04.501Z,20.0799
2023-03-27T08:23:06.191Z,20.0934
2023-03-27T08:24:07.833Z,20.0749
2023-03-27T08:25:09.502Z,20.0776
2023-03-27T08:26:11.101Z,20.0790
2023-03-27T08:27:12.798Z,20.1074
2023-03-27T08:28:14.433Z,20.0973
2023-03-27T08:29:16.138Z,20.1220
2023-03-27T08:30:17.794Z,20.1020
2023-03-27T08:31:19.487Z,20.1203
2023-03-27T08:32:21.035Z,20.1080
2023-03-27T08:33:22.739Z,20.1228
2023-03-27T08:34:24.397Z,20.0872
2023-03-27T08:35:26.026Z,20.0944
2023-03-27T08:36:27.632Z,20.0799
2023-03-27T08:37:29.265Z,20.0932
2023-03-27T08:38:30.964Z,20.1014
2023-03-27T08:39:32.630Z,20.0854
2023-03-27T08:40:34.219Z,20.0819
2023-03-27T08:41:35.882Z,20.0844
2023-03-27T08:42:37.556Z,20.0667
2023-03-27T08:43:39.142Z,20.0856
2023-03-27T08:44:40.873Z,20.1164
2023-03-27T08:45:42.470Z,20.1228
2023-03-27T08:46:44.136Z,20.1033
2023-03-27T08:48:48.556Z,20.0905
2023-03-27T08:49:50.144Z,20.0714
2023-03-27T08:50:51.817Z,20.0601
2023-03-27T08:51:53.406Z,20.1031
2023-03-27T08:52:55.059Z,20.0842
2023-03-27T08:53:56.719Z,20.0866
2023-03-27T08:54:58.502Z,20.0556
2023-03-27T08:56:00.003Z,20.0821
2023-03-27T08:57:01.759Z,20.0507
2023-03-27T08:58:03.334Z,20.0275
2023-03-27T08:59:04.992Z,20.0513
2023-03-27T09:00:06.650Z,20.0497
2023-03-27T09:01:08.301Z,20.0351
2023-03-27T09:02:09.989Z,20.0108
2023-03-27T09:03:11.721Z,20.0129
2023-03-27T09:04:13.218Z,19.9981
2023-03-27T09:05:14.931Z,19.9989
2023-03-27T09:06:16.567Z,19.9987
2023-03-27T09:07:18.188Z,19.9948
2023-03-27T09:08:19.804Z,19.9702
2023-03-27T09:09:21.461Z,19.9667
2023-03-27T09:10:23.199Z,19.9831
2023-03-27T09:11:24.804Z,19.9706
2023-03-27T09:12:26.430Z,19.9658
2023-03-27T09:13:28.027Z,19.9667
2023-03-27T09:14:29.686Z,19.9831
2023-03-27T09:15:31.384Z,19.9821
2023-03-27T09:16:33.122Z,19.9782
2023-03-27T09:17:34.683Z,19.9722
2023-03-27T09:18:36.316Z,19.9856
2023-03-27T09:19:37.947Z,19.9811
2023-03-27T09:20:39.662Z,19.9613
2023-03-27T09:21:41.229Z,19.9656
2023-03-27T09:22:42.904Z,19.9767
2023-03-27T09:23:44.523Z,19.9969
2023-03-27T09:24:46.236Z,19.9940
2023-03-27T09:25:47.926Z,19.9817
2023-03-27T09:27:01.072Z,19.9798
2023-03-27T09:27:51.132Z,19.9697
2023-03-27T09:28:52.806Z,19.9726
2023-03-27T09:30:05.960Z,19.9815
2023-03-27T09:30:56.226Z,19.9810
2023-03-27T09:31:57.744Z,19.9833
2023-03-27T09:32:59.448Z,20.0024
2023-03-27T09:34:01.001Z,20.0073
2023-03-27T09:35:02.752Z,20.0020
2023-03-27T09:36:04.460Z,19.9722
2023-03-27T09:37:06.056Z,19.9679
2023-03-27T09:38:07.640Z,19.9611
2023-03-27T09:39:09.314Z,19.9650
2023-03-27T09:40:10.954Z,19.9774
2023-03-27T09:41:12.634Z,19.9638
2023-03-27T09:42:14.238Z,19.9771
2023-03-27T09:43:15.920Z,19.9903
2023-03-27T09:44:17.596Z,20.0170
2023-03-27T09:45:19.301Z,20.0186
2023-03-27T09:46:20.933Z,20.0490
2023-03-27T09:47:22.520Z,20.0262
2023-03-27T09:48:24.185Z,20.0104
2023-03-27T09:49:25.814Z,20.0034
2023-03-27T09:50:27.945Z,19.9712
2023-03-27T09:51:29.269Z,19.9638
2023-03-27T09:52:30.711Z,19.9763
2023-03-27T09:53:32.434Z,20.0008
2023-03-27T09:54:34.058Z,19.9930
2023-03-27T09:55:35.717Z,20.0041
2023-03-27T09:56:37.392Z,19.9948
2023-03-27T09:57:39.077Z,19.9864
2023-03-27T09:58:40.678Z,19.9767
2023-03-27T09:59:42.307Z,19.9909
2023-03-27T10:00:44.031Z,19.9847
2023-03-27T10:01:45.632Z,19.9626
2023-03-27T10:02:47.297Z,19.9808
2023-03-27T10:03:49.108Z,19.9726
2023-03-27T10:04:50.548Z,19.9558
2023-03-27T10:05:52.216Z,19.9726
2023-03-27T10:06:53.852Z,19.9915
2023-03-27T10:07:55.522Z,19.9946
2023-03-27T10:08:57.165Z,20.0100
2023-03-27T10:09:58.836Z,20.0149
2023-03-27T10:11:00.485Z,20.0119
2023-03-27T10:12:02.190Z,19.9995
2023-03-27T10:13:03.767Z,19.9973
2023-03-27T10:14:05.454Z,19.9954
2023-03-27T10:15:07.112Z,19.9597
2023-03-27T10:16:08.837Z,19.9400
2023-03-27T10:17:10.450Z,19.9574
2023-03-27T10:18:12.199Z,19.9564
2023-03-27T10:19:13.855Z,19.9599
2023-03-27T10:20:15.491Z,19.9671
2023-03-27T10:21:17.100Z,19.9897
2023-03-27T10:22:18.766Z,19.9823
2023-03-27T10:23:20.359Z,19.9751
2023-03-27T10:24:22.005Z,19.9640
2023-03-27T10:25:23.678Z,19.9525
2023-03-27T10:26:25.343Z,19.9562
2023-03-27T10:27:26.976Z,19.9628
2023-03-27T10:28:28.609Z,19.9790
2023-03-27T10:29:30.262Z,19.9644
2023-03-27T10:30:31.912Z,19.9611
2023-03-27T10:31:33.588Z,19.9671
2023-03-27T10:32:35.268Z,19.9679
2023-03-27T10:33:36.885Z,19.9870
2023-03-27T10:34:38.517Z,19.9901
2023-03-27T10:35:40.179Z,19.9806
2023-03-27T10:36:41.842Z,19.9761
2023-03-27T10:37:49.773Z,19.9665
2023-03-27T10:38:45.132Z,19.9706
2023-03-27T10:39:46.756Z,19.9821
2023-03-27T10:40:48.426Z,19.9930
2023-03-27T10:41:50.067Z,19.9987
2023-03-27T10:42:51.782Z,20.0057
2023-03-27T10:43:53.360Z,20.0269
2023-03-27T10:44:55.030Z,20.0055
2023-03-27T10:45:56.764Z,20.0145
2023-03-27T10:46:58.347Z,20.0244
2023-03-27T10:48:00.038Z,20.0490
2023-03-27T10:49:01.635Z,20.0788
2023-03-27T10:50:03.267Z,20.0905
2023-03-27T10:51:04.945Z,20.0659
2023-03-27T10:52:06.560Z,20.0612
2023-03-27T10:53:08.336Z,20.0562
2023-03-27T10:54:09.902Z,20.0610
2023-03-27T10:55:11.537Z,20.0534
2023-03-27T10:56:13.176Z,20.0673
2023-03-27T10:57:14.868Z,20.0669
2023-03-27T10:58:16.481Z,20.0745
2023-03-27T10:59:21.509Z,20.0846
2023-03-27T11:00:19.763Z,20.0718
2023-03-27T11:01:21.505Z,20.0850
2023-03-27T11:02:23.115Z,20.0677
2023-03-27T11:03:24.807Z,20.0759
2023-03-27T11:04:26.378Z,20.0704
2023-03-27T11:05:28.092Z,20.0757
2023-03-27T11:06:29.698Z,20.0503
2023-03-27T11:07:31.369Z,20.0503
2023-03-27T11:08:33.062Z,20.0482
2023-03-27T11:09:34.708Z,20.0488
2023-03-27T11:10:36.320Z,20.0371
2023-03-27T11:11:38.031Z,20.0256
2023-03-27T11:12:39.608Z,20.0242
2023-03-27T11:13:41.279Z,20.0258
2023-03-27T11:14:42.917Z,20.0453
2023-03-27T11:15:44.608Z,20.0382
2023-03-27T11:16:46.242Z,20.0410
2023-03-27T11:17:47.905Z,20.0373
2023-03-27T11:18:49.573Z,20.0367
2023-03-27T11:19:51.176Z,20.0665
2023-03-27T11:20:52.789Z,20.0770
2023-03-27T11:21:54.485Z,20.0575
2023-03-27T11:22:56.138Z,20.0312
2023-03-27T11:23:57.926Z,20.0349
2023-03-27T11:24:59.429Z,20.0531
2023-03-27T11:26:01.075Z,20.0622
2023-03-27T11:27:02.754Z,20.0630
2023-03-27T11:28:04.444Z,20.0326
2023-03-27T11:29:06.059Z,20.0289
2023-03-27T11:30:07.705Z,20.0443
2023-03-27T11:31:12.112Z,20.0507
2023-03-27T11:32:10.995Z,20.0544
2023-03-27T11:33:12.608Z,20.0661
2023-03-27T11:34:14.345Z,20.0780
2023-03-27T11:35:15.923Z,20.0852
2023-03-27T11:36:17.619Z,20.0858
2023-03-27T11:37:19.217Z,20.0809
2023-03-27T11:38:20.911Z,20.0870
2023-03-27T11:39:22.626Z,20.0848
2023-03-27T11:40:24.232Z,20.0743
2023-03-27T11:41:25.847Z,20.0901
2023-03-27T11:42:27.604Z,20.0846
2023-03-27T11:43:29.135Z,20.0907
2023-03-27T11:44:30.847Z,20.0772
2023-03-27T11:45:32.452Z,20.0786
2023-03-27T11:46:34.168Z,20.0737
2023-03-27T11:47:35.759Z,20.0811
2023-03-27T11:48:37.394Z,20.0692
2023-03-27T11:49:39.141Z,20.0651
2023-03-27T11:50:40.750Z,20.0558
2023-03-27T11:51:42.403Z,20.0749
2023-03-27T11:52:43.997Z,20.0720
2023-03-27T11:53:45.684Z,20.0464
2023-03-27T11:54:47.379Z,20.0525
2023-03-27T11:55:49.008Z,20.0301
2023-03-27T11:56:50.643Z,20.0423
2023-03-27T11:57:52.278Z,20.0480
2023-03-27T11:58:53.917Z,20.0484
2023-03-27T11:59:55.616Z,20.0437
2023-03-27T12:00:57.393Z,20.0476
2023-03-27T12:01:58.936Z,20.0556
2023-03-27T12:03:00.574Z,20.0324
2023-03-27T12:04:02.320Z,20.0340
2023-03-27T12:05:03.866Z,20.0562
2023-03-27T12:06:05.556Z,20.0560
2023-03-27T12:07:09.836Z,20.0618
2023-03-27T12:08:08.790Z,20.0610
2023-03-27T12:09:10.428Z,20.0692
2023-03-27T12:10:12.140Z,20.0683
2023-03-27T12:11:13.716Z,20.0575
2023-03-27T12:12:15.391Z,20.0597
2023-03-27T12:13:17.021Z,20.0544
2023-03-27T12:14:19.140Z,20.0517
2023-03-27T12:15:20.421Z,20.0665
2023-03-27T12:16:22.092Z,20.0499
2023-03-27T12:17:23.725Z,20.0665
2023-03-27T12:18:35.277Z,20.0710
2023-03-27T12:19:29.680Z,20.0613
2023-03-27T12:20:28.745Z,20.0614
2023-03-27T12:21:30.330Z,20.0612
2023-03-27T12:22:31.921Z,20.0663
2023-03-27T12:23:33.522Z,20.0723
2023-03-27T12:24:35.196Z,20.0764
2023-03-27T12:25:36.931Z,20.0751
2023-03-27T12:26:38.626Z,20.0688